Time;durP1;ratioP1;P1;durP2;ratioP2;P2;SDS_P1;SDS_P2;PMS_P1;PMS_P2;Temp;Humidity;BMP_temperature;BMP_pressure;BME280_temperature;BME280_humidity;BME280_pressure;Samples;Min_cycle;Max_cycle;Signal;HPM_P1;HPM_P2
2022/10/18 00:01:07;;;;;;;18.73;17.33;;;;;;;16.33;100.00;101368.44;4947065;29;20221;-81
2022/10/18 00:03:35;;;;;;;19.23;17.60;;;;;;;16.36;100.00;101360.47;4946765;29;20258;-79
2022/10/18 00:06:02;;;;;;;17.50;15.83;;;;;;;16.36;100.00;101371.84;4946758;29;20242;-81
2022/10/18 00:08:29;;;;;;;17.90;16.53;;;;;;;16.43;100.00;101380.44;4948542;29;20248;-81
2022/10/18 00:10:56;;;;;;;18.60;16.67;;;;;;;16.52;100.00;101384.63;4947807;29;20212;-82
2022/10/18 00:13:23;;;;;;;18.30;16.37;;;;;;;16.58;100.00;101384.44;4947403;29;20212;-81
2022/10/18 00:15:53;;;;;;;17.70;15.93;;;;;;;16.50;100.00;101392.56;4946552;29;20229;-81
2022/10/18 00:18:20;;;;;;;16.23;14.63;;;;;;;16.33;100.00;101395.66;4947500;29;20213;-81
2022/10/18 00:20:56;;;;;;;16.93;14.40;;;;;;;16.35;100.00;101391.22;4946811;29;20220;-81
2022/10/18 00:23:23;;;;;;;21.23;14.90;;;;;;;16.50;100.00;101381.16;4946483;29;20213;-80
2022/10/18 00:25:57;;;;;;;14.97;13.83;;;;;;;16.53;100.00;101392.47;4947610;29;20232;-81
2022/10/18 00:28:24;;;;;;;18.33;13.80;;;;;;;16.67;100.00;101398.22;4947915;29;20239;-80
2022/10/18 00:30:52;;;;;;;16.27;14.27;;;;;;;16.61;100.00;101408.94;4947012;29;20218;-81
2022/10/18 00:33:18;;;;;;;17.07;15.77;;;;;;;16.46;100.00;101401.47;4947480;29;20219;-80
2022/10/18 00:35:45;;;;;;;18.20;16.70;;;;;;;16.45;100.00;101391.81;4946935;29;20237;-81
2022/10/18 00:38:11;;;;;;;17.53;15.63;;;;;;;16.60;100.00;101395.78;4946813;29;20213;-81
2022/10/18 00:40:37;;;;;;;17.13;15.50;;;;;;;16.56;100.00;101395.00;4947339;29;20225;-79
2022/10/18 00:43:04;;;;;;;16.63;15.00;;;;;;;16.67;100.00;101378.91;4947882;29;20219;-79
2022/10/18 00:45:30;;;;;;;15.10;13.90;;;;;;;16.68;100.00;101399.06;4948121;29;20233;-82
2022/10/18 00:48:01;;;;;;;15.10;13.90;;;;;;;16.70;100.00;101407.78;4947169;29;20618;-80
2022/10/18 00:50:32;;;;;;;14.97;13.77;;;;;;;16.41;100.00;101406.88;4947249;29;20219;-80
2022/10/18 00:53:02;;;;;;;14.97;13.57;;;;;;;16.52;100.00;101401.28;4947635;29;20698;-81
2022/10/18 00:55:31;;;;;;;15.97;14.57;;;;;;;16.47;100.00;101408.44;4945527;29;20245;-81
2022/10/18 00:57:58;;;;;;;18.33;16.60;;;;;;;16.44;100.00;101405.91;4947948;29;20231;-79
2022/10/18 01:00:25;;;;;;;16.27;13.33;;;;;;;16.58;100.00;101410.78;4947121;29;20206;-81
2022/10/18 01:02:52;;;;;;;16.73;12.23;;;;;;;16.67;100.00;101410.53;4947385;29;20218;-81
2022/10/18 01:05:20;;;;;;;19.80;14.83;;;;;;;16.66;100.00;101420.19;4946935;29;20236;-81
2022/10/18 01:08:07;;;;;;;14.40;12.90;;;;;;;16.74;100.00;101427.91;4946921;29;20719;-80
2022/10/18 01:10:41;;;;;;;19.27;14.67;;;;;;;16.68;100.00;101428.94;4946586;29;20213;-81
2022/10/18 01:13:21;;;;;;;13.30;12.30;;;;;;;16.75;100.00;101440.19;4947226;29;20220;-81
2022/10/18 01:15:57;;;;;;;15.40;14.10;;;;;;;16.44;100.00;101446.28;4946508;29;20225;-80
2022/10/18 01:18:30;;;;;;;22.40;15.17;;;;;;;16.42;100.00;101436.72;4947559;29;20201;-81
2022/10/18 01:21:19;;;;;;;18.17;15.13;;;;;;;16.19;100.00;101422.38;4946387;29;20224;-81
2022/10/18 01:24:03;;;;;;;20.10;15.63;;;;;;;16.25;100.00;101395.00;4947117;29;20247;-81
2022/10/18 01:26:45;;;;;;;26.87;16.67;;;;;;;16.37;100.00;101391.16;4947221;29;20238;-81
2022/10/18 01:29:21;;;;;;;16.10;14.20;;;;;;;16.51;100.00;101388.13;4946453;29;20228;-82
2022/10/18 01:31:53;;;;;;;19.90;14.33;;;;;;;16.59;100.00;101383.50;4944861;29;20208;-80
2022/10/18 01:34:20;;;;;;;17.70;16.20;;;;;;;16.55;100.00;101397.69;4946785;29;20212;-81
2022/10/18 01:36:50;;;;;;;16.63;14.97;;;;;;;16.53;100.00;101396.88;4945892;29;20244;-80
2022/10/18 01:39:21;;;;;;;18.07;16.37;;;;;;;16.49;100.00;101393.47;4945841;29;20216;-81
2022/10/18 01:41:51;;;;;;;19.63;17.13;;;;;;;16.36;100.00;101381.53;4945892;29;20214;-80
2022/10/18 01:44:21;;;;;;;18.33;16.73;;;;;;;16.37;100.00;101373.59;4946667;29;20217;-80
2022/10/18 01:46:51;;;;;;;19.00;16.90;;;;;;;16.44;100.00;101375.13;4946531;29;20240;-81
2022/10/18 01:49:17;;;;;;;18.50;16.60;;;;;;;16.51;100.00;101372.31;4945980;29;20229;-81
2022/10/18 01:51:44;;;;;;;17.43;15.40;;;;;;;16.57;100.00;101373.03;4946184;29;20220;-80
2022/10/18 01:54:16;;;;;;;16.40;15.00;;;;;;;16.61;100.00;101372.03;4945760;29;20224;-81
2022/10/18 01:56:52;;;;;;;23.37;14.50;;;;;;;16.66;100.00;101392.97;4944747;29;20228;-81
2022/10/18 01:59:30;;;;;;;16.23;14.50;;;;;;;16.70;100.00;101402.53;4945597;29;20209;-81
2022/10/18 02:02:06;;;;;;;22.73;15.33;;;;;;;16.70;100.00;101409.56;4945341;29;20648;-82
2022/10/18 02:04:41;;;;;;;14.17;12.87;;;;;;;16.74;100.00;101414.72;4946000;29;20220;-81
2022/10/18 02:07:16;;;;;;;14.63;12.43;;;;;;;16.77;100.00;101413.75;4946523;29;20744;-80
2022/10/18 02:09:50;;;;;;;17.37;13.20;;;;;;;16.74;100.00;101419.13;4946077;29;20209;-80
2022/10/18 02:12:18;;;;;;;15.20;12.70;;;;;;;16.77;100.00;101421.66;4946692;29;20248;-81
2022/10/18 02:14:45;;;;;;;17.57;12.23;;;;;;;16.77;100.00;101422.53;4946632;29;20216;-81
2022/10/18 02:17:16;;;;;;;18.53;12.47;;;;;;;16.79;100.00;101417.22;4946164;29;20237;-81
2022/10/18 02:19:46;;;;;;;16.37;12.80;;;;;;;16.78;100.00;101411.06;4945971;29;20209;-81
2022/10/18 02:22:14;;;;;;;16.17;12.70;;;;;;;16.80;100.00;101411.88;4945797;29;20220;-80
2022/10/18 02:24:44;;;;;;;14.23;12.70;;;;;;;16.76;100.00;101404.13;4944653;29;20214;-81
2022/10/18 02:27:11;;;;;;;16.03;13.53;;;;;;;16.76;100.00;101397.06;4946004;29;20237;-80
2022/10/18 02:29:38;;;;;;;14.33;13.03;;;;;;;16.73;100.00;101391.91;4946091;29;20235;-80
2022/10/18 02:32:09;;;;;;;23.80;14.10;;;;;;;16.74;100.00;101392.75;4946407;29;20227;-80
2022/10/18 02:34:41;;;;;;;16.80;13.97;;;;;;;16.73;100.00;101388.38;4950199;29;20208;-81
2022/10/18 02:37:09;;;;;;;14.37;13.23;;;;;;;16.68;100.00;101386.75;4955415;29;20252;-81
2022/10/18 02:39:37;;;;;;;17.77;14.10;;;;;;;16.70;100.00;101393.75;4953272;29;20205;-81
2022/10/18 02:42:06;;;;;;;14.20;12.03;;;;;;;16.67;100.00;101397.34;4954773;29;20212;-81
2022/10/18 02:44:33;;;;;;;14.53;13.33;;;;;;;16.65;100.00;101397.41;4953290;28;20209;-81
2022/10/18 02:47:00;;;;;;;13.60;12.40;;;;;;;16.63;100.00;101393.94;4949553;29;20236;-81
2022/10/18 02:49:26;;;;;;;16.03;14.50;;;;;;;16.62;100.00;101400.09;4948668;29;20225;-80
2022/10/18 02:51:54;;;;;;;19.37;14.83;;;;;;;16.59;100.00;101392.31;4948475;29;20215;-81
2022/10/18 02:54:21;;;;;;;15.57;14.07;;;;;;;16.65;100.00;101391.28;4949529;29;20217;-81
2022/10/18 02:56:47;;;;;;;17.60;14.43;;;;;;;16.66;100.00;101385.94;4951765;29;20244;-81
2022/10/18 02:59:14;;;;;;;16.50;15.00;;;;;;;16.66;100.00;101392.97;4950976;29;20214;-78
2022/10/18 03:01:41;;;;;;;16.27;14.87;;;;;;;16.68;100.00;101399.94;4948937;29;20217;-80
2022/10/18 03:04:07;;;;;;;17.23;15.57;;;;;;;16.68;100.00;101402.56;4949455;29;20219;-79
2022/10/18 03:06:34;;;;;;;22.67;15.27;;;;;;;16.64;100.00;101407.97;4948297;29;20574;-81
2022/10/18 03:09:04;;;;;;;22.57;16.53;;;;;;;16.59;100.00;101394.06;4948788;29;20240;-80
2022/10/18 03:11:31;;;;;;;18.57;16.70;;;;;;;16.53;100.00;101381.94;4948609;29;20213;-81
2022/10/18 03:13:57;;;;;;;18.37;16.57;;;;;;;16.55;100.00;101379.22;4948605;29;20210;-79
2022/10/18 03:16:24;;;;;;;21.00;16.50;;;;;;;16.55;100.00;101379.22;4948296;29;20229;-81
2022/10/18 03:18:50;;;;;;;18.13;16.40;;;;;;;16.58;100.00;101379.16;4947633;29;20213;-79
2022/10/18 03:21:17;;;;;;;16.97;15.40;;;;;;;16.59;100.00;101365.94;4948188;29;20216;-81
2022/10/18 03:23:43;;;;;;;17.43;15.73;;;;;;;16.60;100.00;101366.81;4947954;29;20218;-81
2022/10/18 03:26:11;;;;;;;18.63;16.80;;;;;;;16.58;100.00;101366.84;4948310;29;20237;-79
2022/10/18 03:28:38;;;;;;;20.33;17.60;;;;;;;16.55;100.00;101368.69;4947620;29;20240;-81
2022/10/18 03:31:05;;;;;;;19.47;17.17;;;;;;;16.54;100.00;101367.84;4962163;29;20666;-80
2022/10/18 03:33:32;;;;;;;20.60;18.27;;;;;;;16.55;100.00;101352.88;4966965;29;20222;-80
2022/10/18 03:35:59;;;;;;;22.53;17.17;;;;;;;16.57;100.00;101351.94;4967236;29;20236;-79
2022/10/18 03:38:26;;;;;;;19.67;17.03;;;;;;;16.58;100.00;101355.44;4966098;29;20211;-80
2022/10/18 03:40:52;;;;;;;19.43;17.23;;;;;;;16.59;100.00;101354.50;4965076;29;20220;-79
2022/10/18 03:43:20;;;;;;;19.77;17.77;;;;;;;16.58;100.00;101348.38;4966751;29;20218;-79
2022/10/18 03:45:47;;;;;;;18.37;16.13;;;;;;;16.59;100.00;101347.50;4966085;29;20710;-78
2022/10/18 03:48:13;;;;;;;18.20;16.33;;;;;;;16.61;100.00;101350.94;4966211;29;20224;-79
2022/10/18 03:50:40;;;;;;;19.33;17.47;;;;;;;16.61;100.00;101357.97;4966711;29;20224;-80
2022/10/18 03:53:06;;;;;;;20.20;16.63;;;;;;;16.60;100.00;101359.75;4966029;28;20201;-80
2022/10/18 03:55:33;;;;;;;18.07;16.57;;;;;;;16.60;100.00;101345.72;4965780;28;20240;-80
2022/10/18 03:57:59;;;;;;;17.23;15.63;;;;;;;16.59;100.00;101346.59;4966472;29;20213;-80
2022/10/18 04:00:27;;;;;;;18.87;15.03;;;;;;;16.55;100.00;101343.22;4966580;29;20209;-81
2022/10/18 04:02:54;;;;;;;16.03;14.83;;;;;;;16.54;100.00;101345.91;4966273;29;20209;-81
2022/10/18 04:05:22;;;;;;;15.80;14.13;;;;;;;16.51;100.00;101349.50;4966792;29;20254;-80
2022/10/18 04:07:49;;;;;;;14.63;13.43;;;;;;;16.48;100.00;101353.06;4965802;28;20217;-80
2022/10/18 04:10:17;;;;;;;18.53;13.90;;;;;;;16.51;100.00;101361.78;4965581;29;20216;-80
2022/10/18 04:12:44;;;;;;;17.10;15.60;;;;;;;16.53;100.00;101367.88;4965952;29;20222;-81
2022/10/18 04:15:10;;;;;;;18.63;16.70;;;;;;;16.51;100.00;101364.41;4965875;29;20211;-79
2022/10/18 04:17:38;;;;;;;17.37;15.67;;;;;;;16.50;100.00;101360.94;4966072;29;20295;-80
2022/10/18 04:20:06;;;;;;;17.07;15.27;;;;;;;16.52;100.00;101345.06;4965734;28;20208;-80
2022/10/18 04:22:32;;;;;;;20.10;14.67;;;;;;;16.47;100.00;101343.44;4965780;29;20682;-80
2022/10/18 04:24:59;;;;;;;15.50;14.13;;;;;;;16.47;100.00;101345.19;4965725;29;20207;-81
2022/10/18 04:27:26;;;;;;;17.57;15.97;;;;;;;16.48;100.00;101352.19;4965324;29;20208;-79
2022/10/18 04:29:52;;;;;;;18.97;17.17;;;;;;;16.49;100.00;101361.84;4965302;29;20232;-80
2022/10/18 04:32:19;;;;;;;24.83;17.37;;;;;;;16.52;100.00;101366.16;4966321;29;20576;-80
2022/10/18 04:34:46;;;;;;;19.37;16.90;;;;;;;16.51;100.00;101367.94;4965644;29;20211;-80
2022/10/18 04:37:13;;;;;;;18.13;15.67;;;;;;;16.47;100.00;101363.63;4965096;29;20630;-79
2022/10/18 04:39:40;;;;;;;18.00;16.37;;;;;;;16.45;100.00;101365.44;4964462;29;20216;-78
2022/10/18 04:42:06;;;;;;;17.77;16.23;;;;;;;16.46;100.00;101369.84;4964800;29;20278;-79
2022/10/18 04:44:33;;;;;;;18.33;16.90;;;;;;;16.46;100.00;101354.88;4965232;29;20216;-79
2022/10/18 04:46:59;;;;;;;21.17;18.93;;;;;;;16.44;100.00;101355.84;4962042;29;20231;-80
2022/10/18 04:49:26;;;;;;;25.93;18.90;;;;;;;16.39;100.00;101352.47;4953686;29;20695;-79
2022/10/18 04:51:54;;;;;;;18.50;16.73;;;;;;;16.36;100.00;101342.88;4956961;29;20216;-80
2022/10/18 04:54:20;;;;;;;19.70;16.90;;;;;;;16.37;100.00;101330.56;4965079;29;20223;-80
2022/10/18 04:56:47;;;;;;;20.73;17.87;;;;;;;16.40;100.00;101333.97;4964800;29;20596;-79
2022/10/18 04:59:13;;;;;;;22.90;18.07;;;;;;;16.41;100.00;101337.47;4965705;29;20208;-80
2022/10/18 05:01:40;;;;;;;18.57;16.73;;;;;;;16.41;100.00;101348.00;4964537;28;20212;-79
2022/10/18 05:04:06;;;;;;;20.70;18.27;;;;;;;16.44;100.00;101342.66;4965463;29;20218;-81
2022/10/18 05:06:33;;;;;;;32.97;18.23;;;;;;;16.44;100.00;101332.13;4963877;28;20746;-80
2022/10/18 05:09:01;;;;;;;24.57;18.17;;;;;;;16.38;100.00;101341.06;4964498;29;20299;-80
2022/10/18 05:11:27;;;;;;;20.47;18.67;;;;;;;16.40;100.00;101354.19;4964048;29;20211;-81
2022/10/18 05:13:54;;;;;;;21.40;19.77;;;;;;;16.38;100.00;101359.50;4964201;29;20209;-81
2022/10/18 05:16:20;;;;;;;28.67;20.20;;;;;;;16.30;100.00;101358.00;4964644;29;20228;-81
2022/10/18 05:18:47;;;;;;;19.80;17.90;;;;;;;16.31;100.00;101346.53;4964465;29;20670;-79
2022/10/18 05:21:13;;;;;;;19.40;17.63;;;;;;;16.31;100.00;101352.66;4964112;29;20211;-80
2022/10/18 05:23:40;;;;;;;20.67;18.63;;;;;;;16.32;100.00;101349.16;4963762;29;20213;-79
2022/10/18 05:26:09;;;;;;;21.57;18.27;;;;;;;16.33;100.00;101357.91;4964737;29;20239;-80
2022/10/18 05:28:36;;;;;;;22.30;19.00;;;;;;;16.33;100.00;101366.66;4964475;29;20593;-81
2022/10/18 05:31:04;;;;;;;23.57;16.03;;;;;;;16.33;100.00;101364.03;4963676;29;20228;-79
2022/10/18 05:33:31;;;;;;;19.07;16.63;;;;;;;16.35;100.00;101370.16;4963943;29;20208;-79
2022/10/18 05:35:58;;;;;;;26.93;19.67;;;;;;;16.33;100.00;101371.06;4963950;29;20718;-79
2022/10/18 05:38:25;;;;;;;21.47;19.27;;;;;;;16.27;100.00;101365.09;4964110;29;20584;-81
2022/10/18 05:40:51;;;;;;;20.93;18.80;;;;;;;16.29;100.00;101367.66;4963662;29;20210;-80
2022/10/18 05:43:19;;;;;;;21.23;18.90;;;;;;;16.25;100.00;101373.91;4964370;29;20219;-80
2022/10/18 05:45:49;;;;;;;23.97;17.80;;;;;;;16.28;100.00;101372.06;4964521;28;20282;-80
2022/10/18 05:48:15;;;;;;;24.27;18.50;;;;;;;16.26;100.00;101373.03;4963653;29;20216;-80
2022/10/18 05:50:42;;;;;;;19.83;17.57;;;;;;;16.25;100.00;101372.19;4964720;29;20223;-78
2022/10/18 05:53:08;;;;;;;22.10;17.70;;;;;;;16.27;100.00;101374.75;4964674;29;20215;-80
2022/10/18 05:55:35;;;;;;;22.00;17.67;;;;;;;16.28;100.00;101377.34;4963597;29;20313;-80
2022/10/18 05:58:02;;;;;;;21.27;16.17;;;;;;;16.30;100.00;101381.72;4964123;29;20219;-80
2022/10/18 06:00:31;;;;;;;18.47;16.50;;;;;;;16.30;100.00;101382.56;4963347;29;20235;-78
2022/10/18 06:02:57;;;;;;;18.03;16.27;;;;;;;16.32;100.00;101379.91;4964712;29;20239;-80
2022/10/18 06:05:24;;;;;;;19.07;16.13;;;;;;;16.31;100.00;101392.19;4963672;29;20607;-78
2022/10/18 06:07:50;;;;;;;19.30;16.47;;;;;;;16.35;100.00;101396.50;4963962;29;20215;-80
2022/10/18 06:10:17;;;;;;;17.93;15.97;;;;;;;16.35;100.00;101388.59;4964053;29;20540;-80
2022/10/18 06:12:43;;;;;;;19.40;15.80;;;;;;;16.33;100.00;101398.28;4964913;29;20220;-80
2022/10/18 06:15:10;;;;;;;19.90;15.37;;;;;;;16.32;100.00;101391.31;4962462;29;20553;-78
2022/10/18 06:17:38;;;;;;;20.30;16.10;;;;;;;16.33;100.00;101392.16;4964177;29;20208;-81
2022/10/18 06:20:07;;;;;;;19.80;15.53;;;;;;;16.34;100.00;101392.13;4962941;29;20207;-80
2022/10/18 06:22:33;;;;;;;22.63;15.37;;;;;;;16.35;100.00;101401.78;4963922;29;20212;-81
2022/10/18 06:25:00;;;;;;;29.30;16.00;;;;;;;16.32;100.00;101396.56;4959721;29;20215;-80
2022/10/18 06:27:26;;;;;;;22.80;17.23;;;;;;;16.31;100.00;101397.47;4957616;29;20218;-79
2022/10/18 06:29:53;;;;;;;17.80;14.47;;;;;;;16.27;100.00;101393.19;4953721;28;20255;-79
2022/10/18 06:32:19;;;;;;;18.47;15.27;;;;;;;16.26;100.00;101397.59;4946818;29;20198;-80
2022/10/18 06:34:47;;;;;;;19.03;16.43;;;;;;;16.25;100.00;101392.34;4946666;28;20668;-81
2022/10/18 06:37:14;;;;;;;18.60;16.43;;;;;;;16.27;100.00;101385.28;4937704;29;20236;-81
2022/10/18 06:39:40;;;;;;;21.53;15.70;;;;;;;16.28;100.00;101385.25;4938273;29;20235;-81
2022/10/18 06:42:07;;;;;;;19.03;17.33;;;;;;;16.31;100.00;101384.28;4937551;29;20267;-81
2022/10/18 06:44:33;;;;;;;16.60;15.07;;;;;;;16.34;100.00;101380.72;4938885;29;20209;-78
2022/10/18 06:47:00;;;;;;;18.27;15.27;;;;;;;16.33;100.00;101386.88;4938685;29;20235;-79
2022/10/18 06:49:26;;;;;;;16.07;14.50;;;;;;;16.30;100.00;101387.00;4942060;29;20722;-81
2022/10/18 06:51:54;;;;;;;16.53;15.13;;;;;;;16.31;100.00;101399.25;4947508;29;20227;-81
2022/10/18 06:54:21;;;;;;;17.33;16.03;;;;;;;16.30;100.00;101411.56;4948639;29;20205;-79
2022/10/18 06:56:47;;;;;;;18.63;17.13;;;;;;;16.10;100.00;101414.72;4947802;29;20231;-80
2022/10/18 06:59:14;;;;;;;19.73;18.13;;;;;;;15.89;100.00;101395.06;4945976;29;20204;-80
2022/10/18 07:01:42;;;;;;;20.80;18.80;;;;;;;15.46;100.00;101360.13;4940392;29;20590;-80
2022/10/18 07:04:08;;;;;;;23.83;20.53;;;;;;;15.27;100.00;101328.13;4938545;29;20215;-81
2022/10/18 07:06:35;;;;;;;24.53;20.83;;;;;;;15.25;100.00;101334.34;4938127;29;20812;-80
2022/10/18 07:09:03;;;;;;;25.43;21.53;;;;;;;15.44;100.00;101333.00;4937844;29;20235;-78
2022/10/18 07:11:30;;;;;;;21.50;19.43;;;;;;;15.60;100.00;101344.00;4937744;29;20221;-81
2022/10/18 07:14:01;;;;;;;20.80;19.03;;;;;;;15.74;100.00;101348.94;4939328;29;20209;-79
2022/10/18 07:16:29;;;;;;;20.83;18.93;;;;;;;15.81;100.00;101368.94;4946030;29;20251;-79
2022/10/18 07:18:55;;;;;;;21.47;19.57;;;;;;;15.75;100.00;101368.25;4947722;29;20207;-80
2022/10/18 07:21:24;;;;;;;24.87;19.83;;;;;;;15.88;100.00;101372.28;4948725;29;20211;-78
2022/10/18 07:23:52;;;;;;;23.83;21.40;;;;;;;15.60;100.00;101378.22;4952236;29;20209;-79
2022/10/18 07:26:21;;;;;;;38.73;22.23;;;;;;;15.43;100.00;101369.88;4956297;29;20318;-80
2022/10/18 07:28:50;;;;;;;28.40;21.80;;;;;;;15.36;100.00;101368.28;4947110;29;20208;-80
2022/10/18 07:31:17;;;;;;;29.00;21.37;;;;;;;15.54;100.00;101366.97;4940029;29;20212;-79
2022/10/18 07:33:43;;;;;;;22.07;19.80;;;;;;;15.62;100.00;101371.16;4942653;29;20224;-79
2022/10/18 07:36:12;;;;;;;24.30;21.60;;;;;;;15.72;100.00;101376.16;4941976;29;20240;-79
2022/10/18 07:38:38;;;;;;;20.07;18.17;;;;;;;15.84;100.00;101378.53;4954803;29;20203;-80
2022/10/18 07:41:06;;;;;;;22.63;19.27;;;;;;;15.93;100.00;101385.31;4960214;29;20671;-80
2022/10/18 07:43:35;;;;;;;21.57;18.50;;;;;;;16.01;100.00;101393.88;4961269;29;20618;-82
2022/10/18 07:46:04;;;;;;;21.70;19.47;;;;;;;16.08;100.00;101400.72;4961182;29;20660;-80
2022/10/18 07:48:31;;;;;;;22.47;19.90;;;;;;;15.96;100.00;101408.97;4959686;29;20220;-77
2022/10/18 07:50:59;;;;;;;23.60;20.83;;;;;;;15.78;100.00;101402.41;4959477;29;20794;-79
2022/10/18 07:53:25;;;;;;;24.70;21.40;;;;;;;15.75;100.00;101395.41;4960402;28;20551;-79
2022/10/18 07:55:52;;;;;;;22.80;18.47;;;;;;;15.83;100.00;101390.81;4960587;29;20228;-79
2022/10/18 07:58:18;;;;;;;27.40;19.23;;;;;;;15.97;100.00;101392.25;4961999;29;20225;-80
2022/10/18 08:00:46;;;;;;;23.10;20.70;;;;;;;15.99;100.00;101398.34;4962059;29;20682;-78
2022/10/18 08:03:13;;;;;;;24.27;21.43;;;;;;;15.96;100.00;101401.91;4961845;29;20673;-80
2022/10/18 08:05:39;;;;;;;23.70;21.40;;;;;;;15.91;100.00;101395.91;4961782;29;20233;-79
2022/10/18 08:08:06;;;;;;;23.80;20.67;;;;;;;16.00;100.00;101394.81;4961788;29;20222;-78
2022/10/18 08:10:34;;;;;;;22.57;20.13;;;;;;;16.08;100.00;101398.09;4959984;29;20229;-78
2022/10/18 08:13:01;;;;;;;21.77;19.73;;;;;;;16.19;100.00;101398.66;4958825;29;20581;-79
2022/10/18 08:15:27;;;;;;;22.30;18.57;;;;;;;16.20;100.00;101391.66;4958326;29;20232;-79
2022/10/18 08:17:55;;;;;;;21.10;19.13;;;;;;;16.27;100.00;101401.09;4959312;29;20216;-80
2022/10/18 08:20:21;;;;;;;21.43;19.23;;;;;;;16.38;100.00;101393.75;4958268;29;20233;-80
2022/10/18 08:22:50;;;;;;;22.17;19.53;;;;;;;16.44;100.00;101403.28;4958246;29;20223;-80
2022/10/18 08:25:16;;;;;;;22.13;19.83;;;;;;;16.57;100.00;101409.94;4959494;29;20570;-79
2022/10/18 08:27:43;;;;;;;23.07;20.70;;;;;;;16.68;100.00;101405.19;4958346;29;20217;-78
2022/10/18 08:30:11;;;;;;;25.77;21.07;;;;;;;16.68;100.00;101415.75;4957458;29;20233;-79
2022/10/18 08:32:37;;;;;;;23.97;21.60;;;;;;;16.55;100.00;101417.03;4958734;29;20205;-78
2022/10/18 08:35:06;;;;;;;27.50;23.27;;;;;;;16.41;100.00;101422.69;4958437;29;20576;-80
2022/10/18 08:37:33;;;;;;;27.60;20.73;;;;;;;16.61;100.00;101421.22;4958513;29;20216;-78
2022/10/18 08:39:59;;;;;;;24.20;21.90;;;;;;;16.34;100.00;101438.69;4958688;29;20231;-79
2022/10/18 08:42:43;;;;;;;22.90;20.73;;;;;;;16.41;100.00;101419.16;4957330;28;20689;-77
2022/10/18 08:45:12;;;;;;;24.07;21.70;;;;;;;16.56;100.00;101409.97;4957539;29;20211;-78
2022/10/18 08:47:41;;;;;;;27.37;21.80;;;;;;;16.60;100.00;101414.25;4958058;29;20211;-82
2022/10/18 08:50:14;;;;;;;23.27;20.90;;;;;;;16.76;100.00;101422.59;4957603;29;20221;-80
2022/10/18 08:52:48;;;;;;;23.27;20.87;;;;;;;16.73;100.00;101438.47;4957555;28;20223;-81
2022/10/18 08:55:22;;;;;;;24.77;20.57;;;;;;;16.48;100.00;101461.13;4959345;29;20231;-81
2022/10/18 08:57:50;;;;;;;25.97;21.00;;;;;;;16.25;100.00;101447.69;4959140;28;20216;-79
2022/10/18 09:00:19;;;;;;;24.77;21.30;;;;;;;16.20;100.00;101431.16;4958790;28;20209;-79
2022/10/18 09:03:09;;;;;;;26.87;21.03;;;;;;;15.94;100.00;101424.78;4958812;29;20337;-80
2022/10/18 09:05:45;;;;;;;26.40;22.03;;;;;;;15.89;100.00;101416.13;4958055;29;20231;-81
2022/10/18 09:08:34;;;;;;;25.53;21.43;;;;;;;15.87;100.00;101416.16;4959452;29;20872;-82
2022/10/18 09:11:15;;;;;;;28.50;22.67;;;;;;;15.92;100.00;101404.69;4959033;29;20231;-81
2022/10/18 09:14:03;;;;;;;33.23;24.47;;;;;;;15.96;100.00;101415.09;4959421;29;20207;-81
2022/10/18 09:16:39;;;;;;;30.70;24.23;;;;;;;15.95;100.00;101425.66;4960378;29;20235;-81
2022/10/18 09:19:19;;;;;;;34.30;25.70;;;;;;;16.05;100.00;101422.75;4959410;28;20579;-83
2022/10/18 09:21:52;;;;;;;34.97;25.30;;;;;;;16.13;100.00;101413.78;4959302;29;20212;-82
2022/10/18 09:24:27;;;;;;;30.93;24.40;;;;;;;16.23;100.00;101402.97;4959227;29;20211;-79
2022/10/18 09:26:58;;;;;;;29.50;24.53;;;;;;;16.18;100.00;101425.91;4959295;29;20239;-80
2022/10/18 09:29:47;;;;;;;31.03;23.90;;;;;;;16.36;100.00;101423.72;4958563;28;20213;-81
2022/10/18 09:32:27;;;;;;;26.13;22.33;;;;;;;16.50;100.00;101441.78;4958304;29;20216;-79
2022/10/18 09:34:57;;;;;;;22.20;20.27;;;;;;;16.33;100.00;101465.94;4959163;29;20213;-81
2022/10/18 09:37:29;;;;;;;19.60;17.67;;;;;;;16.32;100.00;101459.81;4958195;29;20227;-81
2022/10/18 09:40:03;;;;;;;20.17;18.27;;;;;;;16.39;100.00;101466.66;4959300;29;20270;-86
2022/10/18 09:42:36;;;;;;;18.93;17.33;;;;;;;16.41;100.00;101477.13;4959610;29;20208;-83
2022/10/18 09:45:06;;;;;;;18.70;16.97;;;;;;;16.54;100.00;101475.03;4958941;29;20281;-83
2022/10/18 09:47:38;;;;;;;20.33;16.77;;;;;;;16.65;100.00;101479.13;4957830;29;20213;-84
2022/10/18 09:50:17;;;;;;;17.73;15.57;;;;;;;16.61;100.00;101509.13;4959176;29;20232;-81
2022/10/18 09:52:52;;;;;;;18.27;16.47;;;;;;;16.38;100.00;101508.84;4958992;28;20216;-82
2022/10/18 09:55:24;;;;;;;18.03;15.90;;;;;;;16.44;100.00;101487.59;4958489;29;20224;-84
2022/10/18 09:57:55;;;;;;;21.60;17.87;;;;;;;16.47;100.00;101483.13;4957691;29;20209;-84
2022/10/18 10:00:28;;;;;;;19.53;16.90;;;;;;;16.43;100.00;101486.75;4958092;29;20210;-83
2022/10/18 10:02:54;;;;;;;20.17;18.27;;;;;;;16.30;100.00;101473.94;4957270;29;20222;-83
2022/10/18 10:05:21;;;;;;;20.90;18.83;;;;;;;16.34;100.00;101452.72;4957172;29;20257;-84
2022/10/18 10:07:49;;;;;;;20.20;18.33;;;;;;;16.19;100.00;101450.50;4955985;29;20223;-82
2022/10/18 10:10:20;;;;;;;19.57;17.83;;;;;;;16.37;100.00;101459.69;4957348;29;20229;-84
2022/10/18 10:12:47;;;;;;;20.40;18.60;;;;;;;16.55;100.00;101460.94;4955027;29;20246;-83
2022/10/18 10:15:20;;;;;;;20.87;18.87;;;;;;;16.22;100.00;101461.81;4937991;29;20228;-84
2022/10/18 10:17:55;;;;;;;22.73;18.90;;;;;;;16.40;100.00;101465.72;4938529;29;20211;-85
2022/10/18 10:20:24;;;;;;;20.80;18.67;;;;;;;16.42;100.00;101470.97;4937673;29;20216;-85
2022/10/18 10:22:52;;;;;;;21.87;19.87;;;;;;;16.55;100.00;101458.31;4938612;29;20205;-83
2022/10/18 10:25:23;;;;;;;23.07;19.23;;;;;;;16.50;100.00;101468.13;4938133;29;20265;-82
2022/10/18 10:27:50;;;;;;;20.23;18.20;;;;;;;16.61;100.00;101466.94;4939155;29;20287;-81
2022/10/18 10:30:27;;;;;;;20.97;18.83;;;;;;;16.71;100.00;101471.94;4939126;29;20240;-80
2022/10/18 10:32:55;;;;;;;24.30;19.13;;;;;;;16.57;100.00;101486.38;4938419;29;20285;-80
2022/10/18 10:35:24;;;;;;;20.37;18.57;;;;;;;16.67;100.00;101489.63;4938103;29;20240;-80
2022/10/18 10:37:54;;;;;;;20.27;18.27;;;;;;;16.80;100.00;101491.00;4937501;29;20228;-81
2022/10/18 10:40:22;;;;;;;18.67;16.87;;;;;;;16.79;100.00;101517.44;4937685;29;20206;-81
2022/10/18 10:43:05;;;;;;;17.33;15.67;;;;;;;16.62;100.00;101552.16;4938024;29;20217;-82
2022/10/18 10:45:36;;;;;;;17.60;15.97;;;;;;;16.51;100.00;101522.56;4936516;29;20232;-80
2022/10/18 10:48:06;;;;;;;18.90;17.37;;;;;;;16.46;100.00;101517.41;4937958;29;20211;-80
2022/10/18 10:50:49;;;;;;;17.30;15.50;;;;;;;16.36;100.00;101508.88;4938373;29;20229;-82
2022/10/18 10:53:30;;;;;;;19.17;17.27;;;;;;;16.33;100.00;101502.81;4939168;29;20212;-83
2022/10/18 10:55:58;;;;;;;18.07;16.47;;;;;;;16.27;100.00;101495.94;4938250;29;20767;-81
2022/10/18 10:58:27;;;;;;;19.23;16.43;;;;;;;16.33;100.00;101497.56;4937532;29;20681;-82
2022/10/18 11:00:56;;;;;;;17.20;15.60;;;;;;;16.35;100.00;101488.72;4936720;29;20210;-80
2022/10/18 11:03:23;;;;;;;18.53;16.63;;;;;;;16.52;100.00;101483.00;4936579;29;20714;-80
2022/10/18 11:05:53;;;;;;;16.93;15.27;;;;;;;16.68;100.00;101501.91;4939091;29;20251;-80
2022/10/18 11:08:25;;;;;;;15.20;13.73;;;;;;;16.83;100.00;101512.06;4940969;29;20207;-81
2022/10/18 11:11:02;;;;;;;16.37;14.73;;;;;;;16.84;100.00;101540.13;4940309;29;20233;-81